createdAt,value
2018-05-04T00:00:24.803Z,13.50
2018-05-04T00:02:53.904Z,13.40
2018-05-04T00:05:23.011Z,13.30
2018-05-04T00:07:51.351Z,13.30
2018-05-04T00:10:20.529Z,13.40
2018-05-04T00:12:48.863Z,13.40
2018-05-04T00:15:17.185Z,13.30
2018-05-04T00:17:45.526Z,13.30
2018-05-04T00:20:13.833Z,13.20
2018-05-04T00:22:42.932Z,13.10
2018-05-04T00:25:11.999Z,13.20
2018-05-04T00:27:40.372Z,13.20
2018-05-04T00:30:08.788Z,13.00
2018-05-04T00:32:37.129Z,13.00
2018-05-04T00:35:05.439Z,13.00
2018-05-04T00:37:33.761Z,13.00
2018-05-04T00:40:02.089Z,12.90
2018-05-04T00:42:30.407Z,12.80
2018-05-04T00:44:59.475Z,12.70
2018-05-04T00:47:27.808Z,12.70
2018-05-04T00:49:56.123Z,12.80
2018-05-04T00:52:24.460Z,12.80
2018-05-04T00:54:52.773Z,12.80
2018-05-04T00:57:21.092Z,12.90
2018-05-04T00:59:49.386Z,12.60
2018-05-04T01:02:18.472Z,12.50
2018-05-04T01:04:46.772Z,12.50
2018-05-04T01:07:15.101Z,12.50
2018-05-04T01:09:43.405Z,12.60
2018-05-04T01:12:12.695Z,12.60
2018-05-04T01:14:41.017Z,12.40
2018-05-04T01:17:09.359Z,12.40
2018-05-04T01:19:37.704Z,12.50
2018-05-04T01:22:05.992Z,12.40
2018-05-04T01:24:34.309Z,12.20
2018-05-04T01:27:02.636Z,12.10
2018-05-04T01:29:30.959Z,12.10
2018-05-04T01:31:59.250Z,12.10
2018-05-04T01:34:27.592Z,12.00
2018-05-04T01:36:55.892Z,11.90
2018-05-04T01:39:24.269Z,11.90
2018-05-04T01:41:52.579Z,11.90
2018-05-04T01:44:20.901Z,11.70
2018-05-04T01:46:49.210Z,11.80
2018-05-04T01:49:17.556Z,11.60
2018-05-04T01:51:46.914Z,11.60
2018-05-04T01:54:15.261Z,11.60
2018-05-04T01:56:43.568Z,11.40
2018-05-04T01:59:11.882Z,11.60
2018-05-04T02:01:40.175Z,11.60
2018-05-04T02:04:09.258Z,11.50
2018-05-04T02:06:38.383Z,11.50
2018-05-04T02:09:07.054Z,11.50
2018-05-04T02:11:36.166Z,11.40
2018-05-04T02:14:04.493Z,11.40
2018-05-04T02:16:32.796Z,11.50
2018-05-04T02:19:01.132Z,11.40
2018-05-04T02:21:29.430Z,11.20
2018-05-04T02:23:57.747Z,11.10
2018-05-04T02:26:26.816Z,10.80
2018-05-04T02:28:55.153Z,10.70
2018-05-04T02:31:23.462Z,10.90
2018-05-04T02:33:51.786Z,10.90
2018-05-04T02:36:20.092Z,11.00
2018-05-04T02:38:48.421Z,10.90
2018-05-04T02:41:16.722Z,11.00
2018-05-04T02:43:45.068Z,10.90
2018-05-04T02:46:13.390Z,10.80
2018-05-04T02:48:41.697Z,10.90
2018-05-04T02:51:10.064Z,10.80
2018-05-04T02:53:39.149Z,10.30
2018-05-04T02:56:08.071Z,10.20
2018-05-04T02:58:36.416Z,10.40
2018-05-04T03:01:04.790Z,10.30
2018-05-04T03:03:33.086Z,10.20
2018-05-04T03:06:01.412Z,10.40
2018-05-04T03:08:29.781Z,10.40
2018-05-04T03:10:58.894Z,10.50
2018-05-04T03:13:27.207Z,10.50
2018-05-04T03:15:55.534Z,10.40
2018-05-04T03:18:24.605Z,10.40
2018-05-04T03:20:53.728Z,10.30
2018-05-04T03:23:22.791Z,10.40
2018-05-04T03:25:51.136Z,10.40
2018-05-04T03:28:19.459Z,10.00
2018-05-04T03:30:47.805Z,10.10
2018-05-04T03:33:16.114Z,10.00
2018-05-04T03:35:44.461Z,10.00
2018-05-04T03:38:12.785Z,10.00
2018-05-04T03:40:41.156Z,9.90
2018-05-04T03:43:09.444Z,9.70
2018-05-04T03:45:37.775Z,9.70
2018-05-04T03:48:06.096Z,9.70
2018-05-04T03:50:34.411Z,9.50
2018-05-04T03:53:03.485Z,9.10
2018-05-04T03:55:31.873Z,9.10
2018-05-04T03:58:11.993Z,9.00
2018-05-04T04:00:52.125Z,9.20
2018-05-04T04:03:32.201Z,9.30
2018-05-04T04:06:00.565Z,9.10
2018-05-04T04:08:28.879Z,9.10
2018-05-04T04:10:57.186Z,9.10
2018-05-04T04:13:25.518Z,9.00
2018-05-04T04:15:54.818Z,9.00
2018-05-04T04:18:23.996Z,9.00
2018-05-04T04:20:52.258Z,9.00
2018-05-04T04:23:20.575Z,9.10
2018-05-04T04:25:48.877Z,9.00
2018-05-04T04:28:17.207Z,9.00
2018-05-04T04:30:46.301Z,9.00
2018-05-04T04:33:14.652Z,9.00
2018-05-04T04:35:42.996Z,9.00
2018-05-04T04:38:11.322Z,9.00
2018-05-04T04:40:39.625Z,9.10
2018-05-04T04:43:08.738Z,9.20
2018-05-04T04:45:38.298Z,9.10
2018-05-04T04:48:06.572Z,9.10
2018-05-04T04:50:34.880Z,9.10
2018-05-04T04:53:03.212Z,9.10
2018-05-04T04:55:31.509Z,9.20
2018-05-04T04:57:59.820Z,9.30
2018-05-04T05:00:28.140Z,9.30
2018-05-04T05:02:57.312Z,9.30
2018-05-04T05:05:25.626Z,9.50
2018-05-04T05:07:53.943Z,9.40
2018-05-04T05:10:22.264Z,9.50
2018-05-04T05:12:51.343Z,9.70
2018-05-04T05:15:19.663Z,9.70
2018-05-04T05:17:47.971Z,9.70
2018-05-04T05:20:16.284Z,9.70
2018-05-04T05:22:44.597Z,9.80
2018-05-04T05:25:12.927Z,9.90
2018-05-04T05:27:41.221Z,10.00
2018-05-04T05:30:09.555Z,10.10
2018-05-04T05:32:37.873Z,10.20
2018-05-04T05:35:06.194Z,10.20
2018-05-04T05:37:35.266Z,10.30
2018-05-04T05:40:03.584Z,10.30
2018-05-04T05:42:32.655Z,10.50
2018-05-04T05:45:00.965Z,10.40
2018-05-04T05:47:30.063Z,10.50
2018-05-04T05:49:58.383Z,10.50
2018-05-04T05:52:26.732Z,10.50
2018-05-04T05:54:55.067Z,10.60
2018-05-04T05:57:23.396Z,10.60
2018-05-04T05:59:51.696Z,10.70
2018-05-04T06:02:20.032Z,10.70
2018-05-04T06:04:49.110Z,10.90
2018-05-04T06:07:17.457Z,10.80
2018-05-04T06:09:45.751Z,10.90
2018-05-04T06:12:14.101Z,10.90
2018-05-04T06:14:42.416Z,11.00
2018-05-04T06:17:10.751Z,11.00
2018-05-04T06:19:39.057Z,11.10
2018-05-04T06:22:07.397Z,11.10
2018-05-04T06:24:36.468Z,11.20
2018-05-04T06:27:04.792Z,11.20
2018-05-04T06:29:33.112Z,11.20
2018-05-04T06:32:01.454Z,11.20
2018-05-04T06:34:29.775Z,11.30
2018-05-04T06:36:58.093Z,11.40
2018-05-04T06:39:26.432Z,11.40
2018-05-04T06:41:54.743Z,11.50
2018-05-04T06:44:23.060Z,11.50
2018-05-04T06:46:51.371Z,11.50
2018-05-04T06:49:19.703Z,11.60
2018-05-04T06:51:48.781Z,11.70
2018-05-04T06:54:17.133Z,11.60
2018-05-04T06:56:45.453Z,11.80
2018-05-04T06:59:13.783Z,11.80
2018-05-04T07:01:42.091Z,11.80
2018-05-04T07:04:10.754Z,11.90
2018-05-04T07:06:39.055Z,12.00
2018-05-04T07:09:07.382Z,12.00
2018-05-04T07:11:36.458Z,12.20
2018-05-04T07:14:05.574Z,12.30
2018-05-04T07:16:33.896Z,12.30
2018-05-04T07:19:02.237Z,12.30
2018-05-04T07:21:31.305Z,12.40
2018-05-04T07:23:59.644Z,12.40
2018-05-04T07:26:27.962Z,12.60
2018-05-04T07:28:56.283Z,12.70
2018-05-04T07:31:25.380Z,12.70
2018-05-04T07:33:54.458Z,13.00
2018-05-04T07:36:22.793Z,12.90
2018-05-04T07:38:51.098Z,13.00
2018-05-04T07:41:19.440Z,12.90
2018-05-04T07:43:47.756Z,13.20
2018-05-04T07:46:16.102Z,13.30
2018-05-04T07:48:44.476Z,13.20
2018-05-04T07:51:12.802Z,13.40
2018-05-04T07:53:41.103Z,13.30
2018-05-04T07:56:09.423Z,13.40
2018-05-04T07:58:37.744Z,13.50
2018-05-04T08:01:06.067Z,13.60
2018-05-04T08:03:35.154Z,13.80
2018-05-04T08:06:03.490Z,13.80
2018-05-04T08:08:31.865Z,14.10
2018-05-04T08:11:00.164Z,14.20
2018-05-04T08:13:28.494Z,14.40
2018-05-04T08:15:57.589Z,14.60
2018-05-04T08:18:26.689Z,14.80
2018-05-04T08:20:55.067Z,14.80
2018-05-04T08:23:24.151Z,14.90
2018-05-04T08:25:52.468Z,15.00
2018-05-04T08:28:20.820Z,15.10
2018-05-04T08:30:49.128Z,15.10
2018-05-04T08:33:17.448Z,15.50
2018-05-04T08:35:45.773Z,15.10
2018-05-04T08:38:15.744Z,15.30
2018-05-04T08:40:44.090Z,15.30
2018-05-04T08:43:12.468Z,15.40
2018-05-04T08:45:40.756Z,15.40
2018-05-04T08:48:09.098Z,15.50
2018-05-04T08:50:37.418Z,15.40
2018-05-04T08:53:05.743Z,15.50
2018-05-04T08:55:34.076Z,15.60
2018-05-04T08:58:02.414Z,15.60
2018-05-04T09:00:30.719Z,15.70
2018-05-04T09:02:59.807Z,15.80
2018-05-04T09:05:28.273Z,15.80
2018-05-04T09:07:56.518Z,16.10
2018-05-04T09:10:24.831Z,16.50
2018-05-04T09:12:53.173Z,16.20
2018-05-04T09:15:21.479Z,16.00
2018-05-04T09:17:49.805Z,16.40
2018-05-04T09:20:18.899Z,17.00
2018-05-04T09:22:47.295Z,17.00
2018-05-04T09:25:16.458Z,16.60
2018-05-04T09:27:44.730Z,16.60
2018-05-04T09:30:13.076Z,16.70
2018-05-04T09:32:41.387Z,16.40
2018-05-04T09:35:09.813Z,16.50
2018-05-04T09:37:38.077Z,16.30
2018-05-04T09:40:06.425Z,16.40
2018-05-04T09:42:34.754Z,16.70
2018-05-04T09:45:03.870Z,17.10
2018-05-04T09:47:32.183Z,17.10
2018-05-04T09:50:00.520Z,17.00
2018-05-04T09:52:29.597Z,16.90
2018-05-04T09:54:57.922Z,16.90
2018-05-04T09:57:26.230Z,16.90
2018-05-04T09:59:55.396Z,17.60
2018-05-04T10:02:23.717Z,17.60
2018-05-04T10:04:52.037Z,17.70
2018-05-04T10:07:21.149Z,17.80
2018-05-04T10:09:50.220Z,18.00
2018-05-04T10:12:18.547Z,18.00
2018-05-04T10:14:46.862Z,18.30
2018-05-04T10:17:15.208Z,18.60
2018-05-04T10:19:43.535Z,17.70
2018-05-04T10:22:11.871Z,17.80
2018-05-04T10:24:40.960Z,18.00
2018-05-04T10:27:09.293Z,18.00
2018-05-04T10:29:37.609Z,17.90
2018-05-04T10:32:05.939Z,18.30
2018-05-04T10:34:34.263Z,18.50
2018-05-04T10:37:03.362Z,18.40
2018-05-04T10:39:32.448Z,18.60
2018-05-04T10:42:00.795Z,18.60
2018-05-04T10:44:29.102Z,18.40
2018-05-04T10:46:57.432Z,18.80
2018-05-04T10:49:25.743Z,18.80
2018-05-04T10:51:54.099Z,18.80
2018-05-04T10:54:23.177Z,19.10
2018-05-04T10:56:52.625Z,18.30
2018-05-04T10:59:20.966Z,18.30
2018-05-04T11:01:49.279Z,18.70
2018-05-04T11:04:17.610Z,19.00
2018-05-04T11:06:46.686Z,19.70
2018-05-04T11:09:15.028Z,19.70
2018-05-04T11:11:43.337Z,19.10
2018-05-04T11:14:11.684Z,19.20
2018-05-04T11:16:39.997Z,19.60
2018-05-04T11:19:08.439Z,19.60
2018-05-04T11:21:36.765Z,19.30
2018-05-04T11:24:05.090Z,19.50
2018-05-04T11:26:34.150Z,19.60
2018-05-04T11:29:02.490Z,19.60
2018-05-04T11:31:30.818Z,19.90
2018-05-04T11:34:00.685Z,20.10
2018-05-04T11:36:28.997Z,20.10
2018-05-04T11:38:57.306Z,20.40
2018-05-04T11:41:26.442Z,20.40
2018-05-04T11:43:54.741Z,20.40
2018-05-04T11:46:23.095Z,20.70
2018-05-04T11:48:52.170Z,19.70
2018-05-04T11:51:20.557Z,19.60
2018-05-04T11:53:49.654Z,20.30
2018-05-04T11:56:17.986Z,20.30
2018-05-04T11:58:46.304Z,20.50
2018-05-04T12:01:15.289Z,20.50
2018-05-04T12:03:43.602Z,20.30
2018-05-04T12:06:12.698Z,20.40
2018-05-04T12:08:41.774Z,20.30
2018-05-04T12:11:10.112Z,20.30
2018-05-04T12:13:38.416Z,20.50
2018-05-04T12:16:06.756Z,20.60
2018-05-04T12:18:36.544Z,20.70
2018-05-04T12:21:04.870Z,20.70
2018-05-04T12:23:33.207Z,20.80
2018-05-04T12:26:01.535Z,21.00
2018-05-04T12:28:29.874Z,21.10
2018-05-04T12:30:59.548Z,21.10
2018-05-04T12:33:27.938Z,21.10
2018-05-04T12:35:56.243Z,21.50
2018-05-04T12:38:24.643Z,22.20
2018-05-04T12:40:52.933Z,22.10
2018-05-04T12:43:21.277Z,21.90
2018-05-04T12:45:49.594Z,21.40
2018-05-04T12:48:17.949Z,21.60
2018-05-04T12:50:46.264Z,21.20
2018-05-04T12:53:14.611Z,21.50
2018-05-04T12:55:42.956Z,21.50
2018-05-04T12:58:11.288Z,21.20
2018-05-04T13:00:40.371Z,21.30
2018-05-04T13:03:08.713Z,21.30
2018-05-04T13:05:37.022Z,21.20
2018-05-04T13:08:05.368Z,21.50
2018-05-04T13:10:33.681Z,21.70
2018-05-04T13:13:02.024Z,22.00
2018-05-04T13:15:30.331Z,21.80
2018-05-04T13:17:58.650Z,21.80
2018-05-04T13:20:27.973Z,21.60
2018-05-04T13:22:56.305Z,21.60
2018-05-04T13:25:24.629Z,22.00
2018-05-04T13:27:52.965Z,22.00
2018-05-04T13:30:21.395Z,21.90
2018-05-04T13:32:49.817Z,21.60
2018-05-04T13:35:18.159Z,21.90
2018-05-04T13:37:46.472Z,21.90
2018-05-04T13:40:14.816Z,22.10
2018-05-04T13:42:43.973Z,21.60
2018-05-04T13:45:12.321Z,21.60
2018-05-04T13:47:40.627Z,21.70
2018-05-04T13:50:08.960Z,21.60
2018-05-04T13:52:37.272Z,21.50
2018-05-04T13:55:05.585Z,21.60
2018-05-04T13:57:33.886Z,21.70
2018-05-04T14:00:02.997Z,21.70
2018-05-04T14:02:31.316Z,21.70
2018-05-04T14:04:59.656Z,21.30
2018-05-04T14:07:27.969Z,21.60
2018-05-04T14:09:56.312Z,21.50
2018-05-04T14:12:25.394Z,21.30
2018-05-04T14:14:53.701Z,21.30
2018-05-04T14:17:22.027Z,21.80
2018-05-04T14:19:51.860Z,21.50
2018-05-04T14:22:20.191Z,21.50
2018-05-04T14:24:48.523Z,21.90
2018-05-04T14:27:17.645Z,21.20
2018-05-04T14:29:45.963Z,21.20
2018-05-04T14:32:14.295Z,21.50
2018-05-04T14:34:43.369Z,21.50
2018-05-04T14:37:11.708Z,21.50
2018-05-04T14:39:40.012Z,21.10
2018-05-04T14:42:08.343Z,21.00
2018-05-04T14:44:36.660Z,21.00
2018-05-04T14:47:04.990Z,21.00
2018-05-04T14:49:34.112Z,21.60
2018-05-04T14:52:02.469Z,21.60
2018-05-04T14:54:31.553Z,21.30
2018-05-04T14:56:59.889Z,21.30
2018-05-04T14:59:28.206Z,20.90
2018-05-04T15:01:56.553Z,21.20
2018-05-04T15:04:24.853Z,21.40
2018-05-04T15:06:53.178Z,21.30
2018-05-04T15:09:21.528Z,21.10
2018-05-04T15:11:49.883Z,21.20
2018-05-04T15:14:18.208Z,21.10
2018-05-04T15:16:47.293Z,20.80
2018-05-04T15:19:15.628Z,20.80
2018-05-04T15:21:43.950Z,21.10
2018-05-04T15:24:12.276Z,20.90
2018-05-04T15:26:40.593Z,20.80
2018-05-04T15:29:08.925Z,20.70
2018-05-04T15:31:37.227Z,20.60
2018-05-04T15:34:05.565Z,20.70
2018-05-04T15:36:34.655Z,20.70
2018-05-04T15:39:03.752Z,20.90
2018-05-04T15:41:32.816Z,20.90
2018-05-04T15:44:01.138Z,20.80
2018-05-04T15:46:30.216Z,20.70
2018-05-04T15:49:05.025Z,20.70
2018-05-04T15:54:42.996Z,20.60
2018-05-04T15:57:11.250Z,20.50
2018-05-04T15:59:39.581Z,20.40
2018-05-04T16:02:07.893Z,20.60
2018-05-04T16:04:36.239Z,20.40
2018-05-04T16:07:04.567Z,20.30
2018-05-04T16:09:32.915Z,20.50
2018-05-04T16:12:01.244Z,20.40
2018-05-04T16:14:30.356Z,20.30
2018-05-04T16:16:58.672Z,20.30
2018-05-04T16:19:27.013Z,20.30
2018-05-04T16:21:55.335Z,20.40
2018-05-04T16:24:24.496Z,20.10
2018-05-04T16:26:53.566Z,20.10
2018-05-04T16:29:22.656Z,20.10
2018-05-04T16:31:51.752Z,20.10
2018-05-04T16:34:20.061Z,20.10
2018-05-04T16:36:48.400Z,20.00
2018-05-04T16:39:16.756Z,20.00
2018-05-04T16:41:45.083Z,19.90
2018-05-04T16:44:13.406Z,19.80
2018-05-04T16:49:49.211Z,19.80
2018-05-04T16:52:19.193Z,19.80
2018-05-04T16:54:47.519Z,19.90
2018-05-04T16:57:16.047Z,19.90
2018-05-04T16:59:44.406Z,19.60
2018-05-04T17:02:13.776Z,19.60
2018-05-04T17:04:42.100Z,19.40
2018-05-04T17:07:10.620Z,19.40
2018-05-04T17:09:40.642Z,19.30
2018-05-04T17:12:09.814Z,19.20
2018-05-04T17:14:38.173Z,19.20
2018-05-04T17:17:06.639Z,19.10
2018-05-04T17:19:35.023Z,19.00
2018-05-04T17:22:03.791Z,19.00
2018-05-04T17:24:32.241Z,19.10
2018-05-04T17:27:00.712Z,19.00
2018-05-04T17:29:29.943Z,18.70
2018-05-04T17:31:59.096Z,18.60
2018-05-04T17:34:27.460Z,18.60
2018-05-04T17:36:55.809Z,18.70
2018-05-04T17:39:24.184Z,18.70
2018-05-04T17:41:53.446Z,18.60
2018-05-04T17:44:22.581Z,18.60
2018-05-04T17:46:50.923Z,18.60
2018-05-04T17:49:19.355Z,18.40
2018-05-04T17:51:47.757Z,18.30
2018-05-04T17:54:16.268Z,18.40
2018-05-04T17:56:44.627Z,18.40
2018-05-04T17:59:13.235Z,18.30
2018-05-04T18:01:41.725Z,18.30
2018-05-04T18:04:10.166Z,18.20
2018-05-04T18:06:38.502Z,18.00
2018-05-04T18:09:06.900Z,17.90
2018-05-04T18:11:36.069Z,17.80
2018-05-04T18:14:04.450Z,17.80
2018-05-04T18:16:32.787Z,17.80
2018-05-04T18:19:01.615Z,17.80
2018-05-04T18:21:29.986Z,17.70
2018-05-04T18:23:58.464Z,17.70
2018-05-04T18:26:26.868Z,17.50
2018-05-04T18:28:55.239Z,17.50
2018-05-04T18:31:23.591Z,17.40
2018-05-04T18:33:51.942Z,17.30
2018-05-04T18:36:20.307Z,17.30
2018-05-04T18:38:48.715Z,17.30
2018-05-04T18:41:17.046Z,17.10
2018-05-04T18:43:45.488Z,17.10
2018-05-04T18:46:13.867Z,17.10
2018-05-04T18:48:43.374Z,16.90
2018-05-04T18:51:11.715Z,17.00
2018-05-04T18:53:40.046Z,16.70
2018-05-04T18:56:08.606Z,16.70
2018-05-04T18:58:37.073Z,16.50
2018-05-04T19:01:05.410Z,16.60
2018-05-04T19:03:33.808Z,16.50
2018-05-04T19:06:02.277Z,16.60
2018-05-04T19:08:30.614Z,16.50
2018-05-04T19:10:59.004Z,16.60
2018-05-04T19:13:27.349Z,16.50
2018-05-04T19:15:56.638Z,16.50
2018-05-04T19:18:25.023Z,16.30
2018-05-04T19:20:53.326Z,16.30
2018-05-04T19:23:22.425Z,16.10
2018-05-04T19:25:51.555Z,16.10
2018-05-04T19:28:19.924Z,16.10
2018-05-04T19:30:48.247Z,16.10
2018-05-04T19:33:16.571Z,16.10
2018-05-04T19:35:44.872Z,16.00
2018-05-04T19:38:13.217Z,15.90
2018-05-04T19:40:42.278Z,15.90
2018-05-04T19:43:10.609Z,15.90
2018-05-04T19:45:38.916Z,15.80
2018-05-04T19:48:07.256Z,15.70
2018-05-04T19:50:35.572Z,15.70
2018-05-04T19:53:03.902Z,15.50
2018-05-04T19:55:32.977Z,15.40
2018-05-04T19:58:01.313Z,15.40
2018-05-04T20:00:29.611Z,15.50
2018-05-04T20:02:57.949Z,15.30
2018-05-04T20:05:26.252Z,15.40
2018-05-04T20:07:54.566Z,15.30
2018-05-04T20:10:22.911Z,15.30
2018-05-04T20:12:51.235Z,15.20
2018-05-04T20:15:19.563Z,15.00
2018-05-04T20:17:47.877Z,15.00
2018-05-04T20:20:16.229Z,15.00
2018-05-04T20:22:44.548Z,15.00
2018-05-04T20:25:12.926Z,14.90
2018-05-04T20:27:42.023Z,15.00
2018-05-04T20:30:10.365Z,15.00
2018-05-04T20:32:38.686Z,15.00
2018-05-04T20:35:07.118Z,14.90
2018-05-04T20:37:35.490Z,14.80
2018-05-04T20:40:04.566Z,14.80
2018-05-04T20:42:33.634Z,14.80
2018-05-04T20:45:02.076Z,14.80
2018-05-04T20:47:30.377Z,14.80
2018-05-04T20:49:58.698Z,14.80
2018-05-04T20:52:27.040Z,14.70
2018-05-04T20:54:55.348Z,14.60
2018-05-04T20:57:23.679Z,14.40
2018-05-04T20:59:52.009Z,14.10
2018-05-04T21:02:20.336Z,14.10
2018-05-04T21:04:48.647Z,14.10
2018-05-04T21:07:16.974Z,14.20
2018-05-04T21:09:45.316Z,14.20
2018-05-04T21:12:13.656Z,14.20
2018-05-04T21:14:41.993Z,14.20
2018-05-04T21:17:11.100Z,14.20
2018-05-04T21:19:40.197Z,14.20
2018-05-04T21:22:08.545Z,14.20
2018-05-04T21:24:36.855Z,14.10
2018-05-04T21:27:05.949Z,14.00
2018-05-04T21:29:36.082Z,13.90
2018-05-04T21:32:09.145Z,13.90
2018-05-04T21:34:38.278Z,13.90
2018-05-04T21:37:06.582Z,13.90
2018-05-04T21:39:34.911Z,13.90
2018-05-04T21:45:03.754Z,13.70
2018-05-04T21:47:32.081Z,13.20
2018-05-04T21:50:02.408Z,13.40
2018-05-04T21:52:31.708Z,13.60
2018-05-04T21:55:00.064Z,13.60
2018-05-04T21:57:28.381Z,13.60
2018-05-04T21:59:56.737Z,13.60
2018-05-04T22:02:25.057Z,13.50
2018-05-04T22:04:53.371Z,13.40
2018-05-04T22:07:21.665Z,13.40
2018-05-04T22:09:49.984Z,13.40
2018-05-04T22:12:19.042Z,13.40
2018-05-04T22:14:47.356Z,13.40
2018-05-04T22:17:15.647Z,13.20
2018-05-04T22:19:43.969Z,13.30
2018-05-04T22:22:12.260Z,13.30
2018-05-04T22:24:40.586Z,13.30
2018-05-04T22:27:08.886Z,13.30
2018-05-04T22:29:37.196Z,13.20
2018-05-04T22:32:05.491Z,13.30
2018-05-04T22:34:33.806Z,13.20
2018-05-04T22:37:02.101Z,13.10
2018-05-04T22:39:30.404Z,13.10
2018-05-04T22:41:58.719Z,13.10
2018-05-04T22:44:27.031Z,13.20
2018-05-04T22:46:55.355Z,13.20
2018-05-04T22:49:23.659Z,13.10
2018-05-04T22:51:51.983Z,13.10
2018-05-04T22:54:20.280Z,13.10
2018-05-04T22:56:48.595Z,13.10
2018-05-04T22:59:16.952Z,13.10
2018-05-04T23:01:45.260Z,13.10
2018-05-04T23:04:14.327Z,13.20
2018-05-04T23:06:42.637Z,13.20
2018-05-04T23:09:11.001Z,13.20
2018-05-04T23:11:39.264Z,13.20
2018-05-04T23:14:07.559Z,12.80
2018-05-04T23:16:35.869Z,12.60
2018-05-04T23:19:04.171Z,12.60
2018-05-04T23:21:32.475Z,12.60
2018-05-04T23:24:00.762Z,12.80
2018-05-04T23:26:29.095Z,12.80
2018-05-04T23:28:57.379Z,12.60
2018-05-04T23:31:25.703Z,12.40
2018-05-04T23:33:54.007Z,12.40
2018-05-04T23:36:22.332Z,12.30
2018-05-04T23:38:50.624Z,12.30
2018-05-04T23:41:18.925Z,12.30
2018-05-04T23:43:47.235Z,12.10
2018-05-04T23:46:15.531Z,12.20
2018-05-04T23:48:43.835Z,12.30
2018-05-04T23:51:12.126Z,12.40
2018-05-04T23:53:40.433Z,12.20
2018-05-04T23:56:08.729Z,12.10
2018-05-04T23:58:37.059Z,12.20
